createdAt,value
2019-05-22T00:00:23.452Z,29.85
2019-05-22T00:02:53.518Z,29.35
2019-05-22T00:05:34.765Z,29.82
2019-05-22T00:08:05.548Z,28.50
2019-05-22T00:10:34.872Z,27.65
2019-05-22T00:13:06.188Z,26.37
2019-05-22T00:15:38.621Z,27.20
2019-05-22T00:18:07.776Z,26.75
2019-05-22T00:20:37.340Z,25.75
2019-05-22T00:23:10.987Z,26.82
2019-05-22T00:25:41.155Z,26.12
2019-05-22T00:28:10.555Z,26.70
2019-05-22T00:30:41.453Z,26.20
2019-05-22T00:33:11.906Z,26.37
2019-05-22T00:35:42.331Z,26.73
2019-05-22T00:38:11.796Z,26.70
2019-05-22T00:40:42.768Z,27.65
2019-05-22T00:43:14.557Z,28.67
2019-05-22T00:45:46.094Z,24.00
2019-05-22T00:48:16.575Z,25.43
2019-05-22T00:50:53.687Z,27.07
2019-05-22T00:53:43.166Z,27.98
2019-05-22T00:56:16.498Z,27.13
2019-05-22T00:58:49.323Z,27.50
2019-05-22T01:01:22.325Z,24.23
2019-05-22T01:03:52.915Z,27.75
2019-05-22T01:06:22.891Z,27.13
2019-05-22T01:08:52.737Z,27.55
2019-05-22T01:11:24.151Z,26.73
2019-05-22T01:13:54.467Z,27.48
2019-05-22T01:16:24.954Z,27.52
2019-05-22T01:18:54.033Z,26.55
2019-05-22T01:21:24.779Z,27.58
2019-05-22T01:23:55.913Z,28.05
2019-05-22T01:26:26.100Z,27.75
2019-05-22T01:28:56.047Z,28.02
2019-05-22T01:31:33.408Z,27.45
2019-05-22T01:34:06.042Z,28.38
2019-05-22T01:36:36.676Z,28.52
2019-05-22T01:39:13.086Z,27.87
2019-05-22T01:41:44.583Z,19.52
2019-05-22T01:44:14.358Z,22.87
2019-05-22T01:46:45.428Z,25.57
2019-05-22T01:49:14.023Z,25.65
2019-05-22T01:51:44.687Z,26.57
2019-05-22T01:54:13.206Z,26.57
2019-05-22T01:56:43.107Z,24.87
2019-05-22T01:59:12.566Z,26.55
2019-05-22T02:01:42.211Z,25.90
2019-05-22T02:04:14.769Z,27.37
2019-05-22T02:09:33.894Z,26.65
2019-05-22T02:12:28.059Z,24.95
2019-05-22T02:14:57.958Z,23.98
2019-05-22T02:17:34.086Z,26.02
2019-05-22T02:20:06.683Z,26.75
2019-05-22T02:22:39.113Z,26.93
2019-05-22T02:25:08.602Z,27.98
2019-05-22T02:27:39.132Z,26.02
2019-05-22T02:30:09.499Z,26.48
2019-05-22T02:32:39.138Z,26.33
2019-05-22T02:35:09.266Z,26.25
2019-05-22T02:37:39.272Z,25.08
2019-05-22T02:40:16.360Z,25.75
2019-05-22T02:42:46.456Z,25.82
2019-05-22T02:45:16.514Z,25.37
2019-05-22T02:47:46.949Z,25.30
2019-05-22T02:50:16.933Z,25.82
2019-05-22T02:52:47.412Z,24.98
2019-05-22T02:55:16.844Z,23.92
2019-05-22T02:57:46.658Z,24.25
2019-05-22T03:00:16.858Z,25.15
2019-05-22T03:02:50.383Z,24.80
2019-05-22T03:05:21.016Z,25.10
2019-05-22T03:07:50.294Z,26.10
2019-05-22T03:10:20.550Z,25.82
2019-05-22T03:12:51.040Z,26.60
2019-05-22T03:15:23.938Z,25.45
2019-05-22T03:17:59.927Z,23.67
2019-05-22T03:20:29.775Z,26.45
2019-05-22T03:23:04.544Z,26.52
2019-05-22T03:25:34.075Z,28.87
2019-05-22T03:28:04.704Z,26.48
2019-05-22T03:30:37.130Z,27.85
2019-05-22T03:33:08.457Z,27.05
2019-05-22T03:35:44.510Z,26.87
2019-05-22T03:38:13.552Z,26.90
2019-05-22T03:40:42.963Z,26.65
2019-05-22T03:43:27.152Z,27.85
2019-05-22T03:45:59.003Z,27.82
2019-05-22T03:48:30.800Z,27.95
2019-05-22T03:51:08.909Z,27.32
2019-05-22T03:53:38.361Z,29.00
2019-05-22T03:56:07.008Z,28.42
2019-05-22T03:58:36.244Z,28.90
2019-05-22T04:01:06.734Z,28.00
2019-05-22T04:03:36.060Z,26.25
2019-05-22T04:06:06.272Z,26.68
2019-05-22T04:08:37.059Z,28.60
2019-05-22T04:11:08.049Z,25.92
2019-05-22T04:13:36.716Z,23.40
2019-05-22T04:16:08.266Z,24.95
2019-05-22T04:18:39.318Z,24.55
2019-05-22T04:21:07.974Z,23.90
2019-05-22T04:23:38.421Z,23.62
2019-05-22T04:26:09.642Z,24.35
2019-05-22T04:28:51.170Z,24.10
2019-05-22T04:31:20.605Z,23.85
2019-05-22T04:33:49.237Z,23.27
2019-05-22T04:36:18.345Z,23.57
2019-05-22T04:38:46.860Z,23.73
2019-05-22T04:41:16.929Z,23.47
2019-05-22T04:43:45.990Z,22.70
2019-05-22T04:46:14.571Z,22.48
2019-05-22T04:48:46.102Z,22.20
2019-05-22T04:51:24.156Z,22.70
2019-05-22T04:53:54.023Z,23.67
2019-05-22T04:56:23.955Z,22.50
2019-05-22T04:58:53.462Z,22.60
2019-05-22T05:01:22.467Z,22.73
2019-05-22T05:03:51.084Z,22.60
2019-05-22T05:06:21.592Z,22.73
2019-05-22T05:08:51.378Z,22.17
2019-05-22T05:11:20.983Z,22.20
2019-05-22T05:13:49.772Z,22.17
2019-05-22T05:16:18.931Z,21.82
2019-05-22T05:18:47.492Z,20.00
2019-05-22T05:21:16.556Z,20.52
2019-05-22T05:23:45.064Z,21.62
2019-05-22T05:26:14.238Z,22.02
2019-05-22T05:28:43.524Z,20.30
2019-05-22T05:31:13.537Z,20.17
2019-05-22T05:34:04.546Z,17.85
2019-05-22T05:36:33.021Z,20.12
2019-05-22T05:39:01.823Z,19.87
2019-05-22T05:41:31.190Z,19.92
2019-05-22T05:44:00.457Z,18.20
2019-05-22T05:46:29.579Z,18.00
2019-05-22T05:48:58.303Z,16.82
2019-05-22T05:51:29.124Z,17.70
2019-05-22T05:54:03.937Z,18.20
2019-05-22T05:56:33.845Z,16.42
2019-05-22T05:59:05.616Z,16.67
2019-05-22T06:01:40.564Z,16.07
2019-05-22T06:04:10.048Z,16.23
2019-05-22T06:06:44.607Z,16.00
2019-05-22T06:09:21.923Z,17.17
2019-05-22T06:11:56.150Z,16.05
2019-05-22T06:14:29.562Z,16.35
2019-05-22T06:17:36.015Z,15.55
2019-05-22T06:20:11.925Z,16.02
2019-05-22T06:22:42.982Z,15.45
2019-05-22T06:25:14.390Z,15.32
2019-05-22T06:27:49.193Z,14.78
2019-05-22T06:30:21.342Z,16.30
2019-05-22T06:35:40.505Z,16.52
2019-05-22T06:38:27.592Z,15.95
2019-05-22T06:40:56.087Z,17.40
2019-05-22T06:43:31.492Z,17.10
2019-05-22T06:46:00.015Z,17.55
2019-05-22T06:48:28.630Z,16.12
2019-05-22T06:50:58.092Z,16.45
2019-05-22T06:53:26.616Z,17.73
2019-05-22T06:55:55.406Z,17.60
2019-05-22T06:58:23.944Z,17.45
2019-05-22T07:00:52.502Z,16.40
2019-05-22T07:03:22.224Z,15.88
2019-05-22T07:05:51.880Z,16.62
2019-05-22T07:08:20.612Z,16.48
2019-05-22T07:10:49.286Z,16.60
2019-05-22T07:13:20.067Z,16.90
2019-05-22T07:15:48.762Z,16.05
2019-05-22T07:18:19.887Z,15.30
2019-05-22T07:20:50.373Z,14.78
2019-05-22T07:23:21.650Z,13.65
2019-05-22T07:25:52.085Z,14.40
2019-05-22T07:28:22.758Z,15.55
2019-05-22T07:30:52.861Z,14.75
2019-05-22T07:33:23.041Z,14.25
2019-05-22T07:36:08.726Z,14.75
2019-05-22T07:38:23.509Z,13.65
2019-05-22T07:40:53.134Z,13.90
2019-05-22T07:43:22.513Z,13.25
2019-05-22T07:45:52.915Z,13.55
2019-05-22T07:48:24.415Z,13.53
2019-05-22T07:50:55.490Z,13.40
2019-05-22T07:53:26.499Z,13.15
2019-05-22T07:55:57.851Z,12.10
2019-05-22T07:58:29.804Z,11.18
2019-05-22T08:01:02.193Z,11.18
2019-05-22T08:03:33.395Z,11.33
2019-05-22T08:06:03.261Z,11.73
2019-05-22T08:08:33.262Z,12.80
2019-05-22T08:11:04.106Z,12.82
2019-05-22T08:13:33.721Z,13.53
2019-05-22T08:16:03.601Z,13.43
2019-05-22T08:18:34.201Z,12.13
2019-05-22T08:21:03.718Z,13.28
2019-05-22T08:23:33.635Z,13.65
2019-05-22T08:26:02.215Z,13.58
2019-05-22T08:28:32.510Z,13.35
2019-05-22T08:31:03.419Z,14.20
2019-05-22T08:33:35.449Z,12.37
2019-05-22T08:36:05.514Z,13.62
2019-05-22T08:38:36.181Z,12.90
2019-05-22T08:41:08.845Z,11.15
2019-05-22T08:44:03.423Z,14.10
2019-05-22T08:46:10.023Z,12.78
2019-05-22T08:48:47.416Z,14.65
2019-05-22T08:51:12.551Z,14.35
2019-05-22T08:53:47.322Z,13.98
2019-05-22T08:56:13.969Z,13.90
2019-05-22T08:58:44.264Z,13.90
2019-05-22T09:01:13.734Z,12.90
2019-05-22T09:03:42.319Z,14.05
2019-05-22T09:06:11.709Z,13.93
2019-05-22T09:08:40.933Z,13.85
2019-05-22T09:11:09.964Z,14.15
2019-05-22T09:13:39.037Z,13.45
2019-05-22T09:16:08.611Z,13.60
2019-05-22T09:18:38.217Z,13.18
2019-05-22T09:21:07.816Z,12.68
2019-05-22T09:23:37.166Z,12.20
2019-05-22T09:26:07.353Z,12.60
2019-05-22T09:28:36.182Z,12.70
2019-05-22T09:31:05.726Z,12.47
2019-05-22T09:33:36.741Z,14.30
2019-05-22T09:36:05.787Z,14.47
2019-05-22T09:38:34.773Z,14.45
2019-05-22T09:41:03.840Z,14.03
2019-05-22T09:43:32.695Z,15.35
2019-05-22T09:46:02.719Z,13.43
2019-05-22T09:48:32.897Z,14.93
2019-05-22T09:51:01.651Z,15.30
2019-05-22T09:53:31.464Z,14.45
2019-05-22T09:56:00.059Z,15.60
2019-05-22T09:58:29.166Z,15.58
2019-05-22T10:00:57.753Z,14.35
2019-05-22T10:03:26.811Z,15.72
2019-05-22T10:05:55.625Z,15.10
2019-05-22T10:08:25.175Z,14.65
2019-05-22T10:10:53.849Z,14.55
2019-05-22T10:13:22.573Z,15.28
2019-05-22T10:15:51.741Z,14.83
2019-05-22T10:18:20.819Z,14.58
2019-05-22T10:20:49.556Z,14.33
2019-05-22T10:23:19.012Z,14.20
2019-05-22T10:25:47.698Z,13.72
2019-05-22T10:28:17.082Z,14.30
2019-05-22T10:30:45.636Z,13.75
2019-05-22T10:33:14.309Z,13.85
2019-05-22T10:35:43.258Z,14.07
2019-05-22T10:38:12.463Z,14.13
2019-05-22T10:40:41.321Z,13.90
2019-05-22T10:43:09.894Z,14.68
2019-05-22T10:45:38.778Z,14.58
2019-05-22T10:48:07.227Z,14.68
2019-05-22T10:50:36.654Z,14.13
2019-05-22T10:53:05.475Z,13.95
2019-05-22T10:55:35.935Z,13.72
2019-05-22T10:58:05.660Z,13.55
2019-05-22T11:00:34.416Z,13.38
2019-05-22T11:03:03.623Z,13.65
2019-05-22T11:05:33.807Z,12.63
2019-05-22T11:08:02.841Z,13.93
2019-05-22T11:10:31.357Z,14.00
2019-05-22T11:13:00.785Z,13.80
2019-05-22T11:15:30.982Z,12.63
2019-05-22T11:17:59.682Z,9.85
2019-05-22T11:20:29.013Z,12.68
2019-05-22T11:22:57.933Z,12.47
2019-05-22T11:25:27.018Z,11.78
2019-05-22T11:27:55.766Z,11.12
2019-05-22T11:30:24.903Z,10.60
2019-05-22T11:32:53.945Z,10.38
2019-05-22T11:35:23.923Z,10.03
2019-05-22T11:37:52.980Z,10.58
2019-05-22T11:40:22.860Z,10.90
2019-05-22T11:42:53.603Z,10.60
2019-05-22T11:45:23.921Z,10.80
2019-05-22T11:47:53.778Z,11.00
2019-05-22T11:50:23.662Z,11.15
2019-05-22T11:52:52.195Z,10.90
2019-05-22T11:55:21.914Z,11.70
2019-05-22T11:57:52.021Z,10.85
2019-05-22T12:00:23.174Z,11.50
2019-05-22T12:02:52.656Z,11.50
2019-05-22T12:05:22.033Z,11.53
2019-05-22T12:07:51.594Z,12.20
2019-05-22T12:10:22.366Z,12.85
2019-05-22T12:12:53.606Z,13.90
2019-05-22T12:15:26.710Z,13.73
2019-05-22T12:17:55.664Z,13.18
2019-05-22T12:20:26.270Z,13.95
2019-05-22T12:22:55.675Z,12.33
2019-05-22T12:25:25.883Z,11.78
2019-05-22T12:27:55.212Z,11.90
2019-05-22T12:30:25.165Z,11.55
2019-05-22T12:32:54.337Z,11.43
2019-05-22T12:35:24.066Z,11.15
2019-05-22T12:37:53.899Z,11.95
2019-05-22T12:40:22.851Z,12.03
2019-05-22T12:42:53.139Z,8.95
2019-05-22T12:45:28.923Z,13.32
2019-05-22T12:47:59.367Z,13.40
2019-05-22T12:50:31.881Z,14.03
2019-05-22T12:53:03.521Z,13.85
2019-05-22T12:55:32.444Z,14.65
2019-05-22T12:58:02.263Z,14.63
2019-05-22T13:00:31.457Z,13.60
2019-05-22T13:03:02.167Z,12.30
2019-05-22T13:05:32.630Z,13.53
2019-05-22T13:08:02.190Z,13.95
2019-05-22T13:10:31.335Z,13.53
2019-05-22T13:12:59.918Z,13.62
2019-05-22T13:15:28.556Z,12.60
2019-05-22T13:17:59.607Z,13.00
2019-05-22T13:20:42.566Z,12.35
2019-05-22T13:23:04.707Z,12.00
2019-05-22T13:25:36.594Z,12.47
2019-05-22T13:28:07.233Z,12.13
2019-05-22T13:30:39.313Z,11.30
2019-05-22T13:33:11.393Z,12.15
2019-05-22T13:35:41.919Z,11.70
2019-05-22T13:38:13.046Z,10.75
2019-05-22T13:40:43.924Z,11.53
2019-05-22T13:43:12.655Z,10.68
2019-05-22T13:45:41.563Z,10.68
2019-05-22T13:48:10.150Z,11.03
2019-05-22T13:50:39.386Z,10.75
2019-05-22T13:53:11.930Z,10.18
2019-05-22T13:55:41.226Z,9.00
2019-05-22T13:58:11.985Z,9.63
2019-05-22T14:00:41.959Z,9.73
2019-05-22T14:03:11.385Z,9.50
2019-05-22T14:05:42.283Z,8.13
2019-05-22T14:08:12.173Z,8.20
2019-05-22T14:10:41.261Z,8.30
2019-05-22T14:13:09.995Z,8.98
2019-05-22T14:15:50.587Z,7.97
2019-05-22T14:18:09.595Z,8.78
2019-05-22T14:20:38.584Z,8.20
2019-05-22T14:23:07.416Z,7.97
2019-05-22T14:25:36.454Z,8.05
2019-05-22T14:28:06.743Z,8.50
2019-05-22T14:30:35.502Z,7.50
2019-05-22T14:33:05.499Z,7.87
2019-05-22T14:35:47.590Z,7.95
2019-05-22T14:38:09.322Z,8.83
2019-05-22T14:40:38.678Z,8.23
2019-05-22T14:43:08.144Z,8.00
2019-05-22T14:45:37.989Z,7.50
2019-05-22T14:48:06.712Z,7.90
2019-05-22T14:50:35.938Z,8.13
2019-05-22T14:53:04.628Z,7.72
2019-05-22T14:55:35.154Z,7.75
2019-05-22T14:58:05.441Z,7.37
2019-05-22T15:00:34.693Z,6.40
2019-05-22T15:03:03.818Z,6.60
2019-05-22T15:05:32.854Z,6.60
2019-05-22T15:08:01.452Z,7.05
2019-05-22T15:10:31.352Z,6.08
2019-05-22T15:13:00.363Z,6.28
2019-05-22T15:15:29.349Z,7.03
2019-05-22T15:17:58.889Z,6.67
2019-05-22T15:20:32.926Z,6.53
2019-05-22T15:23:01.568Z,6.40
2019-05-22T15:25:30.312Z,5.87
2019-05-22T15:28:00.180Z,5.72
2019-05-22T15:30:29.301Z,5.62
2019-05-22T15:32:57.968Z,5.40
2019-05-22T15:35:26.993Z,5.72
2019-05-22T15:37:55.962Z,5.40
2019-05-22T15:40:25.288Z,5.15
2019-05-22T15:42:54.338Z,5.40
2019-05-22T15:45:30.252Z,5.58
2019-05-22T15:48:02.690Z,5.70
2019-05-22T15:50:34.453Z,6.22
2019-05-22T15:53:13.553Z,6.05
2019-05-22T15:55:42.609Z,6.42
2019-05-22T15:58:13.712Z,5.65
2019-05-22T16:00:44.965Z,6.33
2019-05-22T16:03:16.985Z,6.17
2019-05-22T16:08:16.489Z,5.83
2019-05-22T16:10:48.268Z,6.12
2019-05-22T16:13:21.310Z,5.85
2019-05-22T16:15:54.886Z,6.55
2019-05-22T16:18:29.460Z,6.12
2019-05-22T16:21:02.251Z,6.28
2019-05-22T16:23:33.451Z,5.97
2019-05-22T16:26:05.285Z,6.60
2019-05-22T16:28:36.454Z,6.72
2019-05-22T16:31:08.524Z,6.22
2019-05-22T16:36:08.323Z,6.17
2019-05-22T16:38:39.525Z,6.30
2019-05-22T16:41:08.856Z,5.87
2019-05-22T16:43:48.703Z,5.83
2019-05-22T16:46:11.354Z,6.12
2019-05-22T16:48:42.248Z,6.25
2019-05-22T16:51:13.246Z,5.62
2019-05-22T16:53:43.537Z,5.85
2019-05-22T16:56:12.226Z,6.35
2019-05-22T16:58:41.111Z,6.22
2019-05-22T17:01:10.820Z,6.22
2019-05-22T17:03:40.405Z,6.72
2019-05-22T17:06:09.109Z,6.40
2019-05-22T17:08:37.614Z,6.40
2019-05-22T17:11:07.766Z,6.62
2019-05-22T17:13:36.858Z,6.72
2019-05-22T17:16:07.047Z,6.20
2019-05-22T17:18:46.880Z,6.70
2019-05-22T17:21:07.962Z,6.65
2019-05-22T17:23:36.534Z,7.30
2019-05-22T17:26:05.818Z,6.65
2019-05-22T17:28:34.714Z,6.47
2019-05-22T17:31:04.294Z,6.00
2019-05-22T17:33:34.197Z,6.03
2019-05-22T17:36:05.724Z,6.33
2019-05-22T17:38:34.343Z,6.42
2019-05-22T17:41:03.925Z,5.90
2019-05-22T17:43:33.925Z,6.00
2019-05-22T17:46:04.227Z,5.78
2019-05-22T17:48:34.940Z,6.12
2019-05-22T17:51:05.099Z,5.85
2019-05-22T17:53:36.031Z,5.85
2019-05-22T17:56:05.590Z,5.30
2019-05-22T17:58:34.167Z,6.28
2019-05-22T18:01:04.750Z,5.35
2019-05-22T18:03:33.752Z,5.70
2019-05-22T18:06:02.853Z,5.47
2019-05-22T18:08:32.371Z,5.72
2019-05-22T18:11:03.887Z,5.80
2019-05-22T18:13:34.576Z,5.15
2019-05-22T18:16:04.752Z,5.28
2019-05-22T18:18:33.810Z,5.50
2019-05-22T18:21:02.365Z,5.53
2019-05-22T18:23:32.192Z,5.85
2019-05-22T18:26:00.694Z,5.70
2019-05-22T18:28:29.340Z,5.15
2019-05-22T18:30:58.148Z,5.90
2019-05-22T18:33:26.711Z,5.05
2019-05-22T18:35:55.516Z,5.17
2019-05-22T18:38:24.578Z,5.10
2019-05-22T18:40:53.145Z,5.12
2019-05-22T18:43:23.093Z,4.90
2019-05-22T18:45:52.321Z,5.58
2019-05-22T18:48:21.018Z,5.28
2019-05-22T18:50:50.515Z,5.20
2019-05-22T18:53:19.036Z,5.20
2019-05-22T18:55:47.710Z,5.55
2019-05-22T18:58:16.416Z,5.45
2019-05-22T19:00:45.564Z,5.72
2019-05-22T19:03:14.153Z,5.80
2019-05-22T19:05:43.977Z,5.83
2019-05-22T19:08:12.633Z,5.25
2019-05-22T19:10:41.366Z,5.53
2019-05-22T19:13:09.919Z,5.28
2019-05-22T19:15:38.903Z,5.70
2019-05-22T19:18:07.501Z,5.50
2019-05-22T19:20:36.245Z,5.58
2019-05-22T19:23:05.302Z,5.12
2019-05-22T19:25:34.899Z,5.50
2019-05-22T19:28:04.319Z,5.22
2019-05-22T19:30:33.519Z,5.55
2019-05-22T19:33:02.365Z,5.40
2019-05-22T19:35:30.960Z,5.42
2019-05-22T19:38:01.140Z,5.90
2019-05-22T19:40:29.935Z,6.03
2019-05-22T19:42:58.750Z,6.58
2019-05-22T19:45:30.871Z,6.50
2019-05-22T19:47:58.832Z,5.40
2019-05-22T19:50:29.072Z,5.22
2019-05-22T19:52:57.659Z,5.30
2019-05-22T19:55:28.472Z,5.17
2019-05-22T19:57:58.238Z,5.08
2019-05-22T20:00:28.194Z,5.20
2019-05-22T20:03:00.625Z,5.28
2019-05-22T20:05:30.212Z,4.97
2019-05-22T20:07:59.412Z,5.33
2019-05-22T20:10:28.143Z,5.33
2019-05-22T20:12:57.355Z,4.97
2019-05-22T20:15:26.336Z,5.30
2019-05-22T20:17:55.496Z,5.50
2019-05-22T20:20:26.025Z,5.60
2019-05-22T20:22:55.250Z,5.50
2019-05-22T20:25:25.815Z,5.67
2019-05-22T20:27:56.709Z,5.17
2019-05-22T20:30:27.091Z,5.45
2019-05-22T20:32:56.396Z,5.80
2019-05-22T20:35:25.128Z,5.80
2019-05-22T20:37:54.136Z,5.70
2019-05-22T20:40:24.022Z,5.45
2019-05-22T20:42:53.705Z,5.72
2019-05-22T20:45:24.739Z,5.70
2019-05-22T20:48:09.758Z,5.40
2019-05-22T20:50:39.490Z,5.37
2019-05-22T20:53:11.096Z,5.10
2019-05-22T20:55:42.641Z,5.30
2019-05-22T20:58:14.302Z,5.70
2019-05-22T21:00:43.586Z,5.85
2019-05-22T21:03:13.449Z,5.40
2019-05-22T21:05:43.541Z,5.55
2019-05-22T21:08:13.629Z,5.67
2019-05-22T21:10:44.587Z,5.20
2019-05-22T21:13:15.060Z,5.47
2019-05-22T21:15:44.888Z,5.62
2019-05-22T21:18:14.593Z,5.40
2019-05-22T21:20:54.289Z,5.42
2019-05-22T21:23:16.863Z,5.33
2019-05-22T21:25:45.783Z,5.30
2019-05-22T21:28:14.539Z,5.25
2019-05-22T21:30:43.597Z,5.40
2019-05-22T21:33:14.936Z,5.58
2019-05-22T21:35:44.261Z,5.60
2019-05-22T21:38:13.888Z,5.50
2019-05-22T21:40:42.855Z,5.58
2019-05-22T21:43:12.463Z,5.08
2019-05-22T21:45:42.155Z,5.45
2019-05-22T21:48:11.314Z,5.80
2019-05-22T21:50:40.967Z,5.30
2019-05-22T21:53:30.775Z,5.25
2019-05-22T21:56:04.972Z,5.30
2019-05-22T21:58:30.475Z,5.60
2019-05-22T22:01:06.297Z,5.28
2019-05-22T22:03:51.654Z,5.70
2019-05-22T22:06:21.381Z,5.62
2019-05-22T22:08:50.320Z,5.50
2019-05-22T22:11:20.749Z,5.62
2019-05-22T22:13:57.672Z,5.30
2019-05-22T22:16:29.270Z,5.53
2019-05-22T22:18:57.956Z,5.90
2019-05-22T22:21:27.282Z,6.00
2019-05-22T22:23:56.333Z,5.00
2019-05-22T22:26:26.768Z,5.92
2019-05-22T22:28:56.115Z,5.40
2019-05-22T22:31:26.205Z,5.60
2019-05-22T22:33:57.856Z,5.62
2019-05-22T22:36:27.649Z,5.15
2019-05-22T22:38:57.049Z,5.30
2019-05-22T22:41:26.554Z,5.25
2019-05-22T22:43:58.681Z,5.25
2019-05-22T22:48:59.968Z,5.25
2019-05-22T22:51:30.198Z,5.47
2019-05-22T22:53:59.185Z,5.95
2019-05-22T22:56:29.188Z,5.35
2019-05-22T22:58:58.408Z,5.33
2019-05-22T23:01:31.130Z,5.50
2019-05-22T23:04:02.142Z,5.70
2019-05-22T23:06:31.674Z,5.47
2019-05-22T23:09:00.818Z,5.30
2019-05-22T23:11:30.862Z,5.78
2019-05-22T23:14:00.938Z,5.83
2019-05-22T23:16:53.422Z,5.22
2019-05-22T23:19:34.515Z,5.90
2019-05-22T23:22:03.326Z,5.58
2019-05-22T23:24:41.713Z,5.60
2019-05-22T23:27:13.614Z,5.25
2019-05-22T23:29:42.370Z,5.45
2019-05-22T23:32:12.458Z,5.45
2019-05-22T23:34:41.473Z,5.83
2019-05-22T23:37:10.895Z,6.12
2019-05-22T23:39:39.734Z,5.65
2019-05-22T23:42:12.704Z,5.60
2019-05-22T23:44:42.128Z,5.20
2019-05-22T23:47:11.440Z,5.65
2019-05-22T23:49:41.672Z,5.75
2019-05-22T23:52:12.306Z,5.62
2019-05-22T23:54:41.620Z,5.47
2019-05-22T23:57:11.008Z,5.55
2019-05-22T23:59:42.056Z,5.65
